Ana Sayfa
METAR-TAF:

METAR-TAF

Havaalanları :

Lowell, Idaho, Amerika Birleşik Devletleri

Enlem: 46-08-39N, Boylam: 115-35-47W, yükseklik: 480 m

Güncel hava durumu gözlemi

Rapor saat 21:52 UTC de 43 dakika önce yapıldı.
Sakin rüzgar
Sıcaklık 28°C
Nem 37%
Basınç 1009 hPa

METAR: KP69 172152Z AUTO 00000KT 28/12 A2980 RMK AO1 SLP071 T02830117

Saat: 15:35 (22:35 UTC)


TAF: eksik

4.000'den fazla havaalanı için hava durumu gözlemleri ve tahminleri (METAR ve TAF raporları).

Kullanılabilir istasyonlar harita üzerinde sarı ve kırmızı noktalarla gösterilir.

İstasyonun adını görmek için fareyi noktanın üzerinde gezdirin.

Sonrasında hava gözlem ve tahminlerini görmek için tıklayın.

Haritayı değiştirmek için: yaklaştırmak için siyah artı işaretli yeşil düğmeye ve uzaklaştırmak için de eksi işaretli düğmeye hızla tıklayın; bitişik haritalar için yeşil okları kullanın.


METAR-TAF: